sensor_id;sensor_type;location;lat;lon;timestamp;pressure;altitude;pressure_sealevel;temperature;humidity
46199;BME280;31928;52.104;10.030;2023-06-14T03:48:23;100683.22;;;21.19;36.02
46199;BME280;31928;52.104;10.030;2023-06-14T03:50:50;100684.59;;;21.12;36.81
46199;BME280;31928;52.104;10.030;2023-06-14T03:53:17;100688.69;;;21.09;36.58
46199;BME280;31928;52.104;10.030;2023-06-14T03:55:46;100691.16;;;21.06;36.39
46199;BME280;31928;52.104;10.030;2023-06-14T03:58:18;100695.78;;;21.05;37.14
46199;BME280;31928;52.104;10.030;2023-06-14T04:00:45;100695.78;;;21.05;36.84
46199;BME280;31928;52.104;10.030;2023-06-14T04:03:12;100700.69;;;21.03;37.15
46199;BME280;31928;52.104;10.030;2023-06-14T04:05:46;100699.59;;;21.04;36.70
46199;BME280;31928;52.104;10.030;2023-06-14T04:08:16;100694.13;;;21.04;37.11
46199;BME280;31928;52.104;10.030;2023-06-14T04:10:46;100693.59;;;21.02;37.58
46199;BME280;31928;52.104;10.030;2023-06-14T04:13:12;100688.41;;;21.01;37.17
46199;BME280;31928;52.104;10.030;2023-06-14T04:15:39;100694.69;;;21.01;37.58
46199;BME280;31928;52.104;10.030;2023-06-14T04:18:08;100692.22;;;21.00;37.42
46199;BME280;31928;52.104;10.030;2023-06-14T04:20:35;100692.50;;;20.98;37.08
46199;BME280;31928;52.104;10.030;2023-06-14T04:23:12;100699.34;;;21.06;35.69
46199;BME280;31928;52.104;10.030;2023-06-14T04:25:39;100694.16;;;20.94;37.29
46199;BME280;31928;52.104;10.030;2023-06-14T04:28:06;100695.50;;;20.92;37.40
46199;BME280;31928;52.104;10.030;2023-06-14T04:30:37;100699.03;;;20.87;37.78
46199;BME280;31928;52.104;10.030;2023-06-14T04:33:05;100703.94;;;20.80;37.46
46199;BME280;31928;52.104;10.030;2023-06-14T04:35:32;100717.56;;;20.75;37.72
46199;BME280;31928;52.104;10.030;2023-06-14T04:37:59;100721.88;;;20.71;38.08
46199;BME280;31928;52.104;10.030;2023-06-14T04:40:26;100717.00;;;20.68;38.43
46199;BME280;31928;52.104;10.030;2023-06-14T04:42:52;100725.41;;;20.67;38.41
46199;BME280;31928;52.104;10.030;2023-06-14T04:45:19;100716.69;;;20.65;39.26
46199;BME280;31928;52.104;10.030;2023-06-14T04:47:45;100723.78;;;20.66;38.90
46199;BME280;31928;52.104;10.030;2023-06-14T04:50:12;100721.88;;;20.66;38.78
46199;BME280;31928;52.104;10.030;2023-06-14T04:52:39;100724.06;;;20.69;38.95
46199;BME280;31928;52.104;10.030;2023-06-14T04:55:12;100719.72;;;20.73;38.61
46199;BME280;31928;52.104;10.030;2023-06-14T04:57:40;100725.19;;;20.78;38.50
46199;BME280;31928;52.104;10.030;2023-06-14T05:00:07;100723.03;;;21.15;35.23
46199;BME280;31928;52.104;10.030;2023-06-14T05:02:34;100727.94;;;20.88;38.39
46199;BME280;31928;52.104;10.030;2023-06-14T05:05:02;100725.19;;;20.83;38.74
46199;BME280;31928;52.104;10.030;2023-06-14T05:07:29;100729.00;;;20.82;38.54
46199;BME280;31928;52.104;10.030;2023-06-14T05:09:55;100738.81;;;20.78;38.86
46199;BME280;31928;52.104;10.030;2023-06-14T05:12:22;100742.38;;;20.74;39.12
46199;BME280;31928;52.104;10.030;2023-06-14T05:14:49;100743.69;;;20.71;40.01
46199;BME280;31928;52.104;10.030;2023-06-14T05:17:17;100739.59;;;20.69;39.34
46199;BME280;31928;52.104;10.030;2023-06-14T05:19:44;100739.59;;;20.69;39.39
46199;BME280;31928;52.104;10.030;2023-06-14T05:22:11;100742.03;;;20.70;39.74
46199;BME280;31928;52.104;10.030;2023-06-14T05:24:37;100736.59;;;20.70;39.14
46199;BME280;31928;52.104;10.030;2023-06-14T05:27:04;100734.94;;;20.69;39.94
46199;BME280;31928;52.104;10.030;2023-06-14T05:29:32;100745.84;;;20.69;39.62
46199;BME280;31928;52.104;10.030;2023-06-14T05:31:58;100745.84;;;20.69;40.37
46199;BME280;31928;52.104;10.030;2023-06-14T05:34:25;100745.03;;;20.69;40.18
46199;BME280;31928;52.104;10.030;2023-06-14T05:36:52;100741.50;;;20.68;39.97
46199;BME280;31928;52.104;10.030;2023-06-14T05:39:18;100750.78;;;20.67;39.87
46199;BME280;31928;52.104;10.030;2023-06-14T05:41:45;100751.84;;;20.66;39.87
46199;BME280;31928;52.104;10.030;2023-06-14T05:44:14;100742.56;;;20.62;39.54
46199;BME280;31928;52.104;10.030;2023-06-14T05:46:42;100752.38;;;20.58;40.12
46199;BME280;31928;52.104;10.030;2023-06-14T05:49:08;100747.72;;;20.54;40.25
46199;BME280;31928;52.104;10.030;2023-06-14T05:51:35;100753.16;;;20.49;40.51
46199;BME280;31928;52.104;10.030;2023-06-14T05:54:01;100759.41;;;20.45;40.69
46199;BME280;31928;52.104;10.030;2023-06-14T05:56:29;100756.66;;;20.40;40.40
46199;BME280;31928;52.104;10.030;2023-06-14T05:58:56;100767.03;;;20.38;40.65
46199;BME280;31928;52.104;10.030;2023-06-14T06:01:22;100772.19;;;20.34;41.16
46199;BME280;31928;52.104;10.030;2023-06-14T06:03:49;100773.25;;;20.33;40.82
46199;BME280;31928;52.104;10.030;2023-06-14T06:06:16;100777.91;;;20.33;40.96
46199;BME280;31928;52.104;10.030;2023-06-14T06:08:43;100775.97;;;20.33;41.25
46199;BME280;31928;52.104;10.030;2023-06-14T06:11:10;100767.00;;;20.33;41.09
46199;BME280;31928;52.104;10.030;2023-06-14T06:13:37;100768.63;;;20.34;41.15
46199;BME280;31928;52.104;10.030;2023-06-14T06:16:05;100763.16;;;20.34;41.05
46199;BME280;31928;52.104;10.030;2023-06-14T06:18:32;100765.66;;;20.35;41.01
46199;BME280;31928;52.104;10.030;2023-06-14T06:20:59;100763.47;;;20.37;41.13
46199;BME280;31928;52.104;10.030;2023-06-14T06:23:26;100769.47;;;20.39;41.10
46199;BME280;31928;52.104;10.030;2023-06-14T06:25:52;100769.22;;;20.41;40.82
46199;BME280;31928;52.104;10.030;2023-06-14T06:28:19;100766.50;;;20.46;40.81
46199;BME280;31928;52.104;10.030;2023-06-14T06:30:46;100769.75;;;20.48;40.91
46199;BME280;31928;52.104;10.030;2023-06-14T06:33:13;100775.22;;;20.48;41.40
46199;BME280;31928;52.104;10.030;2023-06-14T06:35:40;100771.69;;;20.52;41.20
46199;BME280;31928;52.104;10.030;2023-06-14T06:38:07;100773.06;;;20.54;40.54
46199;BME280;31928;52.104;10.030;2023-06-14T06:40:35;100786.44;;;20.56;41.06
46199;BME280;31928;52.104;10.030;2023-06-14T06:43:02;100775.81;;;20.59;41.16
46199;BME280;31928;52.104;10.030;2023-06-14T06:45:29;100788.06;;;20.62;41.08
46199;BME280;31928;52.104;10.030;2023-06-14T06:47:57;100781.25;;;20.64;40.67
46199;BME280;31928;52.104;10.030;2023-06-14T06:50:23;100787.84;;;20.68;40.66
46199;BME280;31928;52.104;10.030;2023-06-14T06:52:52;100790.84;;;20.72;41.24
46199;BME280;31928;52.104;10.030;2023-06-14T06:55:20;100795.53;;;20.76;40.74
46199;BME280;31928;52.104;10.030;2023-06-14T06:57:46;100787.34;;;20.81;40.58
46199;BME280;31928;52.104;10.030;2023-06-14T07:00:13;100800.97;;;20.86;41.25
46199;BME280;31928;52.104;10.030;2023-06-14T07:02:41;100804.28;;;20.93;41.05
46199;BME280;31928;52.104;10.030;2023-06-14T07:05:07;100803.19;;;20.99;40.44
46199;BME280;31928;52.104;10.030;2023-06-14T07:07:34;100802.38;;;21.04;40.36
46199;BME280;31928;52.104;10.030;2023-06-14T07:10:02;100804.84;;;21.10;40.36
46199;BME280;31928;52.104;10.030;2023-06-14T07:12:31;100814.41;;;21.17;40.07
46199;BME280;31928;52.104;10.030;2023-06-14T07:15:00;100810.34;;;21.25;39.49
46199;BME280;31928;52.104;10.030;2023-06-14T07:17:27;100807.59;;;21.30;40.08
46199;BME280;31928;52.104;10.030;2023-06-14T07:19:54;100815.78;;;21.35;39.47
46199;BME280;31928;52.104;10.030;2023-06-14T07:22:21;100820.16;;;21.41;39.38
46199;BME280;31928;52.104;10.030;2023-06-14T07:24:47;100822.34;;;21.49;39.71
46199;BME280;31928;52.104;10.030;2023-06-14T07:27:14;100828.38;;;21.56;39.53
46199;BME280;31928;52.104;10.030;2023-06-14T07:29:41;100822.66;;;21.62;39.50
46199;BME280;31928;52.104;10.030;2023-06-14T07:32:07;100811.47;;;21.69;39.22
46199;BME280;31928;52.104;10.030;2023-06-14T07:34:34;100822.91;;;21.75;39.05
46199;BME280;31928;52.104;10.030;2023-06-14T07:37:01;100823.19;;;21.84;39.21
46199;BME280;31928;52.104;10.030;2023-06-14T07:39:27;100819.88;;;21.92;38.86
46199;BME280;31928;52.104;10.030;2023-06-14T07:41:54;100818.50;;;21.99;38.40
46199;BME280;31928;52.104;10.030;2023-06-14T07:44:20;100817.38;;;22.05;38.50
46199;BME280;31928;52.104;10.030;2023-06-14T07:46:47;100816.28;;;22.11;39.52
46199;BME280;31928;52.104;10.030;2023-06-14T07:49:15;100813.78;;;22.20;39.09
46199;BME280;31928;52.104;10.030;2023-06-14T07:51:42;100814.09;;;22.28;38.27
46199;BME280;31928;52.104;10.030;2023-06-14T07:54:10;100803.66;;;22.35;37.76
46199;BME280;31928;52.104;10.030;2023-06-14T07:56:37;100816.78;;;22.43;37.69
46199;BME280;31928;52.104;10.030;2023-06-14T07:59:04;100812.91;;;22.49;38.12
46199;BME280;31928;52.104;10.030;2023-06-14T08:01:32;100811.81;;;22.55;38.40
46199;BME280;31928;52.104;10.030;2023-06-14T08:03:59;100804.94;;;22.62;37.69
46199;BME280;31928;52.104;10.030;2023-06-14T08:06:26;100806.53;;;22.68;37.95
46199;BME280;31928;52.104;10.030;2023-06-14T08:08:53;100802.41;;;22.76;38.63
46199;BME280;31928;52.104;10.030;2023-06-14T08:11:20;100806.16;;;22.85;38.56
46199;BME280;31928;52.104;10.030;2023-06-14T08:13:47;100807.75;;;22.96;37.84
46199;BME280;31928;52.104;10.030;2023-06-14T08:16:13;100806.31;;;23.08;37.51
46199;BME280;31928;52.104;10.030;2023-06-14T08:18:40;100814.19;;;23.19;37.10
46199;BME280;31928;52.104;10.030;2023-06-14T08:21:07;100808.06;;;23.32;37.16
46199;BME280;31928;52.104;10.030;2023-06-14T08:23:33;100812.09;;;23.45;37.53
46199;BME280;31928;52.104;10.030;2023-06-14T08:26:00;100810.63;;;23.57;36.91
46199;BME280;31928;52.104;10.030;2023-06-14T08:28:28;100802.88;;;23.69;36.60
46199;BME280;31928;52.104;10.030;2023-06-14T08:30:54;100802.19;;;23.82;36.04
46199;BME280;31928;52.104;10.030;2023-06-14T08:33:21;100808.09;;;23.94;36.03
46199;BME280;31928;52.104;10.030;2023-06-14T08:35:48;100808.25;;;24.07;35.10
46199;BME280;31928;52.104;10.030;2023-06-14T08:38:15;100808.66;;;24.19;34.66
46199;BME280;31928;52.104;10.030;2023-06-14T08:40:42;100804.97;;;24.28;34.00
46199;BME280;31928;52.104;10.030;2023-06-14T08:43:09;100817.78;;;24.38;34.50
46199;BME280;31928;52.104;10.030;2023-06-14T08:45:36;100809.22;;;24.44;34.27
46199;BME280;31928;52.104;10.030;2023-06-14T08:48:03;100811.34;;;24.47;33.88
46199;BME280;31928;52.104;10.030;2023-06-14T08:50:32;100807.47;;;24.53;34.33
46199;BME280;31928;52.104;10.030;2023-06-14T08:53:02;100808.19;;;24.59;34.20
46199;BME280;31928;52.104;10.030;2023-06-14T08:55:30;100815.22;;;24.65;34.55
46199;BME280;31928;52.104;10.030;2023-06-14T08:58:02;100807.19;;;24.73;35.64
46199;BME280;31928;52.104;10.030;2023-06-14T09:00:30;100811.44;;;24.84;34.03
46199;BME280;31928;52.104;10.030;2023-06-14T09:03:00;100814.56;;;24.96;33.46
46199;BME280;31928;52.104;10.030;2023-06-14T09:05:27;100821.53;;;25.07;32.96
46199;BME280;31928;52.104;10.030;2023-06-14T09:07:55;100820.59;;;25.16;33.11
46199;BME280;31928;52.104;10.030;2023-06-14T09:10:23;100820.16;;;25.28;33.78
46199;BME280;31928;52.104;10.030;2023-06-14T09:12:53;100817.75;;;25.40;33.22
46199;BME280;31928;52.104;10.030;2023-06-14T09:15:20;100824.19;;;25.48;32.56
46199;BME280;31928;52.104;10.030;2023-06-14T09:17:47;100827.06;;;25.57;32.08
46199;BME280;31928;52.104;10.030;2023-06-14T09:20:14;100822.25;;;25.67;32.36
46199;BME280;31928;52.104;10.030;2023-06-14T09:22:46;100825.97;;;25.76;32.79
46199;BME280;31928;52.104;10.030;2023-06-14T09:25:13;100829.03;;;25.88;31.44
46199;BME280;31928;52.104;10.030;2023-06-14T09:28:01;100825.50;;;26.01;31.71
46199;BME280;31928;52.104;10.030;2023-06-14T09:30:28;100829.69;;;26.12;32.20
46199;BME280;31928;52.104;10.030;2023-06-14T09:32:55;100829.50;;;26.22;30.64
46199;BME280;31928;52.104;10.030;2023-06-14T09:35:26;100838.34;;;26.32;31.04
46199;BME280;31928;52.104;10.030;2023-06-14T09:37:56;100829.72;;;26.39;31.35
46199;BME280;31928;52.104;10.030;2023-06-14T09:40:23;100832.59;;;26.47;30.74
46199;BME280;31928;52.104;10.030;2023-06-14T09:42:51;100825.25;;;26.56;29.06
46199;BME280;31928;52.104;10.030;2023-06-14T09:45:19;100822.09;;;26.63;29.51
46199;BME280;31928;52.104;10.030;2023-06-14T09:47:51;100823.81;;;26.72;30.14
46199;BME280;31928;52.104;10.030;2023-06-14T09:50:32;100819.31;;;26.76;29.39
46199;BME280;31928;52.104;10.030;2023-06-14T09:53:05;100810.06;;;26.85;30.00
46199;BME280;31928;52.104;10.030;2023-06-14T09:55:34;100802.16;;;26.92;29.47
46199;BME280;31928;52.104;10.030;2023-06-14T09:58:07;100803.09;;;27.01;29.51
46199;BME280;31928;52.104;10.030;2023-06-14T10:00:35;100807.88;;;27.09;30.25
46199;BME280;31928;52.104;10.030;2023-06-14T10:03:11;100800.38;;;27.23;29.93
46199;BME280;31928;52.104;10.030;2023-06-14T10:05:40;100801.75;;;27.34;29.25
46199;BME280;31928;52.104;10.030;2023-06-14T10:08:09;100805.91;;;27.45;28.78
46199;BME280;31928;52.104;10.030;2023-06-14T10:10:38;100804.25;;;27.57;29.97
46199;BME280;31928;52.104;10.030;2023-06-14T10:13:06;100800.09;;;27.68;28.15
46199;BME280;31928;52.104;10.030;2023-06-14T10:15:57;100800.72;;;27.87;29.93
46199;BME280;31928;52.104;10.030;2023-06-14T10:18:43;100801.56;;;27.96;28.82
46199;BME280;31928;52.104;10.030;2023-06-14T10:21:21;100798.50;;;27.97;28.52
46199;BME280;31928;52.104;10.030;2023-06-14T10:23:51;100793.97;;;28.01;27.01
46199;BME280;31928;52.104;10.030;2023-06-14T10:26:23;100797.22;;;28.03;27.06
46199;BME280;31928;52.104;10.030;2023-06-14T10:28:58;100795.94;;;28.09;28.39
46199;BME280;31928;52.104;10.030;2023-06-14T10:31:42;100798.28;;;28.16;28.68
46199;BME280;31928;52.104;10.030;2023-06-14T10:34:10;100793.31;;;28.04;27.46
46199;BME280;31928;52.104;10.030;2023-06-14T10:36:42;100797.22;;;28.03;27.54
46199;BME280;31928;52.104;10.030;2023-06-14T10:39:17;100793.69;;;28.11;27.78
46199;BME280;31928;52.104;10.030;2023-06-14T10:41:52;100793.06;;;28.14;27.84
46199;BME280;31928;52.104;10.030;2023-06-14T10:46:47;100780.59;;;28.17;28.26
46199;BME280;31928;52.104;10.030;2023-06-14T10:49:20;100781.78;;;28.24;27.72
46199;BME280;31928;52.104;10.030;2023-06-14T10:51:50;100775.59;;;28.27;27.66
46199;BME280;31928;52.104;10.030;2023-06-14T10:54:21;100778.22;;;28.32;27.84
46199;BME280;31928;52.104;10.030;2023-06-14T10:56:50;100776.44;;;28.36;28.39
46199;BME280;31928;52.104;10.030;2023-06-14T10:59:18;100772.91;;;28.44;28.20
46199;BME280;31928;52.104;10.030;2023-06-14T11:07:48;100765.66;;;28.65;28.04
46199;BME280;31928;52.104;10.030;2023-06-14T11:10:39;100773.44;;;28.63;28.17
46199;BME280;31928;52.104;10.030;2023-06-14T11:13:07;100771.63;;;28.50;27.08
46199;BME280;31928;52.104;10.030;2023-06-14T11:15:36;100769.34;;;28.44;27.84
46199;BME280;31928;52.104;10.030;2023-06-14T11:18:05;100769.00;;;28.37;27.94
46199;BME280;31928;52.104;10.030;2023-06-14T11:20:34;100773.84;;;28.31;28.07
46199;BME280;31928;52.104;10.030;2023-06-14T11:23:03;100774.47;;;28.28;27.91
46199;BME280;31928;52.104;10.030;2023-06-14T11:25:30;100763.97;;;28.30;29.07
46199;BME280;31928;52.104;10.030;2023-06-14T11:27:57;100757.13;;;28.36;28.75
46199;BME280;31928;52.104;10.030;2023-06-14T11:30:24;100750.69;;;28.49;28.34
46199;BME280;31928;52.104;10.030;2023-06-14T11:32:55;100750.22;;;28.55;27.91
46199;BME280;31928;52.104;10.030;2023-06-14T11:35:25;100752.03;;;28.60;27.40
46199;BME280;31928;52.104;10.030;2023-06-14T11:37:56;100753.47;;;28.66;27.75
46199;BME280;31928;52.104;10.030;2023-06-14T11:40:27;100755.25;;;28.62;27.70
46199;BME280;31928;52.104;10.030;2023-06-14T11:43:01;100749.13;;;28.65;28.10
46199;BME280;31928;52.104;10.030;2023-06-14T11:45:29;100745.53;;;28.56;28.06
46199;BME280;31928;52.104;10.030;2023-06-14T11:47:58;100746.78;;;28.50;27.46
46199;BME280;31928;52.104;10.030;2023-06-14T11:50:26;100741.56;;;28.40;28.01
46199;BME280;31928;52.104;10.030;2023-06-14T11:52:57;100744.66;;;28.39;28.58
46199;BME280;31928;52.104;10.030;2023-06-14T11:55:24;100742.50;;;28.27;28.90
46199;BME280;31928;52.104;10.030;2023-06-14T11:57:53;100736.00;;;28.23;28.30
46199;BME280;31928;52.104;10.030;2023-06-14T12:00:24;100732.78;;;28.21;28.31
46199;BME280;31928;52.104;10.030;2023-06-14T12:02:53;100742.16;;;28.20;29.04
46199;BME280;31928;52.104;10.030;2023-06-14T12:05:23;100741.38;;;28.28;28.22
46199;BME280;31928;52.104;10.030;2023-06-14T12:07:50;100734.13;;;28.41;29.03
46199;BME280;31928;52.104;10.030;2023-06-14T12:10:19;100734.47;;;28.56;27.38
46199;BME280;31928;52.104;10.030;2023-06-14T12:12:46;100735.97;;;28.70;27.66
46199;BME280;31928;52.104;10.030;2023-06-14T12:15:13;100737.47;;;28.85;27.54
46199;BME280;31928;52.104;10.030;2023-06-14T12:17:42;100737.63;;;28.97;27.52
46199;BME280;31928;52.104;10.030;2023-06-14T12:20:14;100738.91;;;28.99;28.20
46199;BME280;31928;52.104;10.030;2023-06-14T12:22:57;100738.28;;;29.11;28.64
46199;BME280;31928;52.104;10.030;2023-06-14T12:27:54;100737.31;;;29.07;28.63
46199;BME280;31928;52.104;10.030;2023-06-14T12:30:21;100727.38;;;29.06;28.52
46199;BME280;31928;52.104;10.030;2023-06-14T12:32:48;100728.53;;;29.05;28.27
46199;BME280;31928;52.104;10.030;2023-06-14T12:35:15;100729.34;;;29.05;28.83
46199;BME280;31928;52.104;10.030;2023-06-14T12:37:42;100726.09;;;29.12;28.75
46199;BME280;31928;52.104;10.030;2023-06-14T12:40:09;100731.13;;;29.18;28.14
46199;BME280;31928;52.104;10.030;2023-06-14T12:42:38;100729.00;;;29.23;28.48
46199;BME280;31928;52.104;10.030;2023-06-14T12:45:05;100733.72;;;29.31;27.94
46199;BME280;31928;52.104;10.030;2023-06-14T12:47:32;100724.13;;;29.37;27.66
46199;BME280;31928;52.104;10.030;2023-06-14T12:49:58;100723.47;;;29.40;27.02
46199;BME280;31928;52.104;10.030;2023-06-14T12:52:26;100729.00;;;29.40;27.49
46199;BME280;31928;52.104;10.030;2023-06-14T12:54:53;100728.03;;;29.36;27.13
46199;BME280;31928;52.104;10.030;2023-06-14T12:57:19;100727.91;;;29.33;27.34
46199;BME280;31928;52.104;10.030;2023-06-14T12:59:46;100725.28;;;29.28;27.55
46199;BME280;31928;52.104;10.030;2023-06-14T13:02:19;100734.22;;;29.33;27.89
46199;BME280;31928;52.104;10.030;2023-06-14T13:04:51;100724.78;;;29.26;27.91
46199;BME280;31928;52.104;10.030;2023-06-14T13:07:18;100726.41;;;29.27;28.36
46199;BME280;31928;52.104;10.030;2023-06-14T13:09:45;100724.94;;;29.29;27.32
46199;BME280;31928;52.104;10.030;2023-06-14T13:12:11;100731.47;;;29.33;27.57
46199;BME280;31928;52.104;10.030;2023-06-14T13:14:41;100716.34;;;29.39;28.06
46199;BME280;31928;52.104;10.030;2023-06-14T13:17:09;100734.22;;;29.42;27.76
46199;BME280;31928;52.104;10.030;2023-06-14T13:19:36;100720.53;;;29.45;26.83
46199;BME280;31928;52.104;10.030;2023-06-14T13:22:03;100720.41;;;29.42;27.60
46199;BME280;31928;52.104;10.030;2023-06-14T13:24:30;100719.41;;;29.38;27.95
46199;BME280;31928;52.104;10.030;2023-06-14T13:26:57;100716.50;;;29.34;28.42
46199;BME280;31928;52.104;10.030;2023-06-14T13:29:24;100716.00;;;29.32;27.67
46199;BME280;31928;52.104;10.030;2023-06-14T13:31:53;100716.34;;;29.31;27.37
46199;BME280;31928;52.104;10.030;2023-06-14T13:34:22;100718.31;;;29.30;28.52
46199;BME280;31928;52.104;10.030;2023-06-14T13:36:49;100719.91;;;29.31;28.60
46199;BME280;31928;52.104;10.030;2023-06-14T13:39:16;100720.06;;;29.35;27.81
46199;BME280;31928;52.104;10.030;2023-06-14T13:41:43;100723.34;;;29.37;27.86
46199;BME280;31928;52.104;10.030;2023-06-14T13:44:09;100719.56;;;29.41;28.43
46199;BME280;31928;52.104;10.030;2023-06-14T13:46:42;100716.81;;;29.50;28.30
46199;BME280;31928;52.104;10.030;2023-06-14T13:49:09;100719.53;;;29.58;28.66
46199;BME280;31928;52.104;10.030;2023-06-14T13:51:37;100715.94;;;29.66;27.93
46199;BME280;31928;52.104;10.030;2023-06-14T13:54:04;100714.63;;;29.72;27.20
46199;BME280;31928;52.104;10.030;2023-06-14T13:56:31;100708.41;;;29.75;26.62
46199;BME280;31928;52.104;10.030;2023-06-14T13:58:57;100714.44;;;29.77;26.81
46199;BME280;31928;52.104;10.030;2023-06-14T14:01:24;100705.34;;;29.77;27.02
46199;BME280;31928;52.104;10.030;2023-06-14T14:03:52;100705.47;;;29.80;26.50
46199;BME280;31928;52.104;10.030;2023-06-14T14:06:19;100700.09;;;29.83;27.10
46199;BME280;31928;52.104;10.030;2023-06-14T14:08:45;100688.41;;;29.86;27.14
46199;BME280;31928;52.104;10.030;2023-06-14T14:11:12;100693.41;;;29.93;26.62
46199;BME280;31928;52.104;10.030;2023-06-14T14:13:39;100690.47;;;29.98;25.95
46199;BME280;31928;52.104;10.030;2023-06-14T14:16:07;100688.66;;;30.02;26.01
46199;BME280;31928;52.104;10.030;2023-06-14T14:18:34;100685.25;;;30.05;26.75
46199;BME280;31928;52.104;10.030;2023-06-14T14:21:01;100691.56;;;30.05;25.71
46199;BME280;31928;52.104;10.030;2023-06-14T14:23:28;100686.72;;;30.02;26.02
46199;BME280;31928;52.104;10.030;2023-06-14T14:25:55;100698.75;;;29.98;26.57
46199;BME280;31928;52.104;10.030;2023-06-14T14:28:22;100702.03;;;29.91;26.57
46199;BME280;31928;52.104;10.030;2023-06-14T14:30:49;100701.72;;;29.84;26.44
46199;BME280;31928;52.104;10.030;2023-06-14T14:33:16;100702.88;;;29.75;26.49
46199;BME280;31928;52.104;10.030;2023-06-14T14:35:44;100706.03;;;29.65;26.82
46199;BME280;31928;52.104;10.030;2023-06-14T14:38:14;100709.94;;;29.56;27.04
46199;BME280;31928;52.104;10.030;2023-06-14T14:40:44;100705.59;;;29.46;27.14
46199;BME280;31928;52.104;10.030;2023-06-14T14:43:11;100713.09;;;29.37;26.81
46199;BME280;31928;52.104;10.030;2023-06-14T14:45:38;100703.97;;;29.28;27.80
46199;BME280;31928;52.104;10.030;2023-06-14T14:48:05;100709.66;;;29.23;27.99
46199;BME280;31928;52.104;10.030;2023-06-14T14:50:32;100710.97;;;29.17;27.75
46199;BME280;31928;52.104;10.030;2023-06-14T14:52:59;100702.53;;;29.14;27.94
46199;BME280;31928;52.104;10.030;2023-06-14T14:55:26;100710.66;;;29.11;28.54
46199;BME280;31928;52.104;10.030;2023-06-14T14:57:53;100701.41;;;29.07;28.71
46199;BME280;31928;52.104;10.030;2023-06-14T15:00:19;100703.69;;;29.05;28.36
46199;BME280;31928;52.104;10.030;2023-06-14T15:02:46;100703.69;;;29.05;28.68
46199;BME280;31928;52.104;10.030;2023-06-14T15:05:13;100705.94;;;29.03;27.98
46199;BME280;31928;52.104;10.030;2023-06-14T15:07:40;100713.72;;;29.01;28.78
46199;BME280;31928;52.104;10.030;2023-06-14T15:10:07;100704.97;;;28.99;28.78
46199;BME280;31928;52.104;10.030;2023-06-14T15:12:34;100712.75;;;28.97;29.02
46199;BME280;31928;52.104;10.030;2023-06-14T15:15:02;100707.09;;;28.93;28.91
46199;BME280;31928;52.104;10.030;2023-06-14T15:17:29;100699.94;;;28.92;28.28
46199;BME280;31928;52.104;10.030;2023-06-14T15:19:56;100704.47;;;28.97;28.86
46199;BME280;31928;52.104;10.030;2023-06-14T15:22:22;100697.34;;;29.04;28.45
46199;BME280;31928;52.104;10.030;2023-06-14T15:24:49;100698.94;;;29.13;28.58
46199;BME280;31928;52.104;10.030;2023-06-14T15:27:16;100699.75;;;29.22;28.11
46199;BME280;31928;52.104;10.030;2023-06-14T15:29:43;100692.13;;;29.28;28.65
46199;BME280;31928;52.104;10.030;2023-06-14T15:32:12;100691.66;;;29.34;28.38
46199;BME280;31928;52.104;10.030;2023-06-14T15:34:39;100691.47;;;29.39;28.25
46199;BME280;31928;52.104;10.030;2023-06-14T15:37:06;100692.91;;;29.45;28.36
46199;BME280;31928;52.104;10.030;2023-06-14T15:39:33;100699.56;;;29.53;27.59
46199;BME280;31928;52.104;10.030;2023-06-14T15:42:00;100689.63;;;29.60;27.38
46199;BME280;31928;52.104;10.030;2023-06-14T15:44:27;100691.53;;;29.68;27.37
46199;BME280;31928;52.104;10.030;2023-06-14T15:46:54;100687.13;;;29.76;27.51
46199;BME280;31928;52.104;10.030;2023-06-14T15:49:21;100692.13;;;29.82;26.69
46199;BME280;31928;52.104;10.030;2023-06-14T15:51:47;100685.94;;;29.85;26.50
46199;BME280;31928;52.104;10.030;2023-06-14T15:54:14;100688.41;;;29.86;27.14
46199;BME280;31928;52.104;10.030;2023-06-14T15:56:41;100690.81;;;29.88;26.48
46199;BME280;31928;52.104;10.030;2023-06-14T15:59:08;100688.06;;;29.88;27.00
46199;BME280;31928;52.104;10.030;2023-06-14T16:01:34;100675.53;;;29.90;27.06
46199;BME280;31928;52.104;10.030;2023-06-14T16:04:01;100674.38;;;29.91;26.80
46199;BME280;31928;52.104;10.030;2023-06-14T16:06:28;100676.50;;;29.94;26.64
46199;BME280;31928;52.104;10.030;2023-06-14T16:08:54;100674.69;;;29.98;26.49
46199;BME280;31928;52.104;10.030;2023-06-14T16:11:21;100674.47;;;30.03;26.76
46199;BME280;31928;52.104;10.030;2023-06-14T16:13:48;100671.88;;;30.07;26.38
46199;BME280;31928;52.104;10.030;2023-06-14T16:16:14;100665.66;;;30.10;26.65
46199;BME280;31928;52.104;10.030;2023-06-14T16:18:41;100666.63;;;30.14;26.63
46199;BME280;31928;52.104;10.030;2023-06-14T16:21:08;100662.69;;;30.15;26.24
46199;BME280;31928;52.104;10.030;2023-06-14T16:23:36;100669.53;;;30.17;25.96
46199;BME280;31928;52.104;10.030;2023-06-14T16:26:03;100670.81;;;30.20;26.29
46199;BME280;31928;52.104;10.030;2023-06-14T16:28:31;100674.41;;;30.20;25.82
46199;BME280;31928;52.104;10.030;2023-06-14T16:30:58;100668.53;;;30.22;25.72
46199;BME280;31928;52.104;10.030;2023-06-14T16:33:25;100673.38;;;30.25;26.15
46199;BME280;31928;52.104;10.030;2023-06-14T16:35:51;100672.25;;;30.26;25.70
46199;BME280;31928;52.104;10.030;2023-06-14T16:38:18;100679.88;;;30.29;25.51
46199;BME280;31928;52.104;10.030;2023-06-14T16:40:47;100676.13;;;30.33;25.85
46199;BME280;31928;52.104;10.030;2023-06-14T16:43:14;100668.75;;;30.37;25.66